sensor_id;sensor_type;location;lat;lon;timestamp;temperature;humidity
68922;DHT22;55959;51.244;5.724;2022-11-24T00:01:08;11.70;75.50
68922;DHT22;55959;51.244;5.724;2022-11-24T00:03:36;11.70;75.50
68922;DHT22;55959;51.244;5.724;2022-11-24T00:06:07;11.70;75.40
68922;DHT22;55959;51.244;5.724;2022-11-24T00:08:34;11.70;75.40
68922;DHT22;55959;51.244;5.724;2022-11-24T00:11:12;11.70;75.30
68922;DHT22;55959;51.244;5.724;2022-11-24T00:13:40;11.70;75.20
68922;DHT22;55959;51.244;5.724;2022-11-24T00:16:10;11.70;76.00
68922;DHT22;55959;51.244;5.724;2022-11-24T00:18:41;11.70;75.10
68922;DHT22;55959;51.244;5.724;2022-11-24T00:21:08;11.70;75.10
68922;DHT22;55959;51.244;5.724;2022-11-24T00:23:35;11.70;75.00
68922;DHT22;55959;51.244;5.724;2022-11-24T00:26:15;11.70;74.90
68922;DHT22;55959;51.244;5.724;2022-11-24T00:28:44;11.70;74.90
68922;DHT22;55959;51.244;5.724;2022-11-24T00:31:18;11.70;74.90
68922;DHT22;55959;51.244;5.724;2022-11-24T00:33:48;11.70;74.80
68922;DHT22;55959;51.244;5.724;2022-11-24T00:36:17;11.70;74.70
68922;DHT22;55959;51.244;5.724;2022-11-24T00:38:44;11.70;74.60
68922;DHT22;55959;51.244;5.724;2022-11-24T00:41:10;11.70;74.60
68922;DHT22;55959;51.244;5.724;2022-11-24T00:43:36;11.70;74.60
68922;DHT22;55959;51.244;5.724;2022-11-24T00:46:02;11.70;74.50
68922;DHT22;55959;51.244;5.724;2022-11-24T00:48:29;11.70;74.50
68922;DHT22;55959;51.244;5.724;2022-11-24T00:50:59;11.70;74.50
68922;DHT22;55959;51.244;5.724;2022-11-24T00:53:27;11.70;74.60
68922;DHT22;55959;51.244;5.724;2022-11-24T00:55:54;11.70;74.50
68922;DHT22;55959;51.244;5.724;2022-11-24T00:58:20;11.70;74.60
68922;DHT22;55959;51.244;5.724;2022-11-24T01:00:47;11.60;74.40
68922;DHT22;55959;51.244;5.724;2022-11-24T01:03:13;11.70;74.50
68922;DHT22;55959;51.244;5.724;2022-11-24T01:05:40;11.60;74.30
68922;DHT22;55959;51.244;5.724;2022-11-24T01:08:06;11.70;74.30
68922;DHT22;55959;51.244;5.724;2022-11-24T01:10:32;11.60;74.30
68922;DHT22;55959;51.244;5.724;2022-11-24T01:12:59;11.60;74.30
68922;DHT22;55959;51.244;5.724;2022-11-24T01:15:26;11.60;74.30
68922;DHT22;55959;51.244;5.724;2022-11-24T01:17:55;11.60;74.30
68922;DHT22;55959;51.244;5.724;2022-11-24T01:20:21;11.60;74.30
68922;DHT22;55959;51.244;5.724;2022-11-24T01:22:48;11.60;74.30
68922;DHT22;55959;51.244;5.724;2022-11-24T01:25:14;11.60;74.40
68922;DHT22;55959;51.244;5.724;2022-11-24T01:27:40;11.60;74.40
68922;DHT22;55959;51.244;5.724;2022-11-24T01:30:06;11.60;74.40
68922;DHT22;55959;51.244;5.724;2022-11-24T01:32:33;11.50;74.50
68922;DHT22;55959;51.244;5.724;2022-11-24T01:35:03;11.60;74.60
68922;DHT22;55959;51.244;5.724;2022-11-24T01:37:30;11.60;74.70
68922;DHT22;55959;51.244;5.724;2022-11-24T01:39:56;11.60;74.70
68922;DHT22;55959;51.244;5.724;2022-11-24T01:42:22;11.60;74.80
68922;DHT22;55959;51.244;5.724;2022-11-24T01:44:50;11.60;74.90
68922;DHT22;55959;51.244;5.724;2022-11-24T01:47:34;11.60;74.90
68922;DHT22;55959;51.244;5.724;2022-11-24T01:50:03;11.60;74.90
68922;DHT22;55959;51.244;5.724;2022-11-24T01:52:37;11.60;74.90
68922;DHT22;55959;51.244;5.724;2022-11-24T01:55:08;11.60;74.90
68922;DHT22;55959;51.244;5.724;2022-11-24T02:00:41;11.70;74.90
68922;DHT22;55959;51.244;5.724;2022-11-24T02:03:14;11.70;74.70
68922;DHT22;55959;51.244;5.724;2022-11-24T02:05:49;11.70;74.70
68922;DHT22;55959;51.244;5.724;2022-11-24T02:08:26;11.70;74.70
68922;DHT22;55959;51.244;5.724;2022-11-24T02:10:56;11.70;74.70
68922;DHT22;55959;51.244;5.724;2022-11-24T02:13:22;11.70;74.50
68922;DHT22;55959;51.244;5.724;2022-11-24T02:15:49;11.70;74.50
68922;DHT22;55959;51.244;5.724;2022-11-24T02:18:17;11.70;74.50
68922;DHT22;55959;51.244;5.724;2022-11-24T02:20:42;11.70;74.50
68922;DHT22;55959;51.244;5.724;2022-11-24T02:28:53;11.70;74.50
68922;DHT22;55959;51.244;5.724;2022-11-24T02:31:19;11.70;75.30
68922;DHT22;55959;51.244;5.724;2022-11-24T02:33:47;11.70;74.50
68922;DHT22;55959;51.244;5.724;2022-11-24T02:36:13;11.70;74.60
68922;DHT22;55959;51.244;5.724;2022-11-24T02:38:39;11.70;75.70
68922;DHT22;55959;51.244;5.724;2022-11-24T02:41:07;11.70;74.70
68922;DHT22;55959;51.244;5.724;2022-11-24T02:43:45;11.70;74.70
68922;DHT22;55959;51.244;5.724;2022-11-24T02:46:15;11.70;74.80
68922;DHT22;55959;51.244;5.724;2022-11-24T02:48:41;11.70;75.20
68922;DHT22;55959;51.244;5.724;2022-11-24T02:51:07;11.80;75.70
68922;DHT22;55959;51.244;5.724;2022-11-24T02:53:33;11.70;74.80
68922;DHT22;55959;51.244;5.724;2022-11-24T02:55:59;11.70;74.80
68922;DHT22;55959;51.244;5.724;2022-11-24T02:58:25;11.70;74.90
68922;DHT22;55959;51.244;5.724;2022-11-24T03:00:51;11.80;74.90
68922;DHT22;55959;51.244;5.724;2022-11-24T03:03:19;11.80;74.90
68922;DHT22;55959;51.244;5.724;2022-11-24T03:05:46;11.80;74.90
68922;DHT22;55959;51.244;5.724;2022-11-24T03:08:11;11.80;74.90
68922;DHT22;55959;51.244;5.724;2022-11-24T03:10:38;11.80;74.80
68922;DHT22;55959;51.244;5.724;2022-11-24T03:13:04;11.90;74.90
68922;DHT22;55959;51.244;5.724;2022-11-24T03:15:29;11.90;74.90
68922;DHT22;55959;51.244;5.724;2022-11-24T03:17:55;11.90;74.90
68922;DHT22;55959;51.244;5.724;2022-11-24T03:20:21;11.90;74.80
68922;DHT22;55959;51.244;5.724;2022-11-24T03:22:48;11.90;74.80
68922;DHT22;55959;51.244;5.724;2022-11-24T03:25:14;11.90;74.80
68922;DHT22;55959;51.244;5.724;2022-11-24T03:27:40;11.90;74.70
68922;DHT22;55959;51.244;5.724;2022-11-24T03:30:06;11.90;74.60
68922;DHT22;55959;51.244;5.724;2022-11-24T03:32:32;12.00;74.70
68922;DHT22;55959;51.244;5.724;2022-11-24T03:34:58;12.00;74.70
68922;DHT22;55959;51.244;5.724;2022-11-24T03:37:24;12.00;74.70
68922;DHT22;55959;51.244;5.724;2022-11-24T03:39:49;12.00;74.60
68922;DHT22;55959;51.244;5.724;2022-11-24T03:42:15;12.00;74.60
68922;DHT22;55959;51.244;5.724;2022-11-24T03:44:41;12.00;74.70
68922;DHT22;55959;51.244;5.724;2022-11-24T03:47:08;12.00;74.60
68922;DHT22;55959;51.244;5.724;2022-11-24T03:49:35;12.00;74.60
68922;DHT22;55959;51.244;5.724;2022-11-24T03:52:01;12.10;74.60
68922;DHT22;55959;51.244;5.724;2022-11-24T03:54:26;12.10;74.50
68922;DHT22;55959;51.244;5.724;2022-11-24T03:56:52;12.10;74.40
68922;DHT22;55959;51.244;5.724;2022-11-24T03:59:18;12.10;74.30
68922;DHT22;55959;51.244;5.724;2022-11-24T04:01:44;12.10;74.30
68922;DHT22;55959;51.244;5.724;2022-11-24T04:04:10;12.10;74.10
68922;DHT22;55959;51.244;5.724;2022-11-24T04:06:36;12.20;74.10
68922;DHT22;55959;51.244;5.724;2022-11-24T04:09:03;12.10;74.10
68922;DHT22;55959;51.244;5.724;2022-11-24T04:11:28;12.20;74.10
68922;DHT22;55959;51.244;5.724;2022-11-24T04:14:13;12.20;74.20
68922;DHT22;55959;51.244;5.724;2022-11-24T04:16:38;12.20;74.20
68922;DHT22;55959;51.244;5.724;2022-11-24T04:19:05;12.20;74.10
68922;DHT22;55959;51.244;5.724;2022-11-24T04:21:30;12.20;74.10
68922;DHT22;55959;51.244;5.724;2022-11-24T04:23:56;12.20;74.10
68922;DHT22;55959;51.244;5.724;2022-11-24T04:26:22;12.20;74.10
68922;DHT22;55959;51.244;5.724;2022-11-24T04:28:48;12.20;73.90
68922;DHT22;55959;51.244;5.724;2022-11-24T04:31:14;12.20;74.00
68922;DHT22;55959;51.244;5.724;2022-11-24T04:33:40;12.20;73.90
68922;DHT22;55959;51.244;5.724;2022-11-24T04:36:06;12.20;73.90
68922;DHT22;55959;51.244;5.724;2022-11-24T04:38:32;12.20;73.90
68922;DHT22;55959;51.244;5.724;2022-11-24T04:41:01;12.20;73.90
68922;DHT22;55959;51.244;5.724;2022-11-24T04:43:28;12.20;73.90
68922;DHT22;55959;51.244;5.724;2022-11-24T04:45:54;12.20;73.90
68922;DHT22;55959;51.244;5.724;2022-11-24T04:48:20;12.20;73.90
68922;DHT22;55959;51.244;5.724;2022-11-24T04:50:46;12.20;73.90
68922;DHT22;55959;51.244;5.724;2022-11-24T04:53:12;12.20;73.90
68922;DHT22;55959;51.244;5.724;2022-11-24T04:55:38;12.20;73.80
68922;DHT22;55959;51.244;5.724;2022-11-24T04:58:08;12.20;73.80
68922;DHT22;55959;51.244;5.724;2022-11-24T05:00:34;12.20;73.70
68922;DHT22;55959;51.244;5.724;2022-11-24T05:03:00;12.20;73.70
68922;DHT22;55959;51.244;5.724;2022-11-24T05:05:26;12.20;73.60
68922;DHT22;55959;51.244;5.724;2022-11-24T05:07:52;12.20;73.60
68922;DHT22;55959;51.244;5.724;2022-11-24T05:10:18;12.20;73.70
68922;DHT22;55959;51.244;5.724;2022-11-24T05:13:05;12.20;73.70
68922;DHT22;55959;51.244;5.724;2022-11-24T05:15:33;12.20;73.70
68922;DHT22;55959;51.244;5.724;2022-11-24T05:18:00;12.10;73.70
68922;DHT22;55959;51.244;5.724;2022-11-24T05:20:28;12.10;73.60
68922;DHT22;55959;51.244;5.724;2022-11-24T05:22:54;12.20;73.70
68922;DHT22;55959;51.244;5.724;2022-11-24T05:25:20;12.10;73.50
68922;DHT22;55959;51.244;5.724;2022-11-24T05:27:46;12.10;73.40
68922;DHT22;55959;51.244;5.724;2022-11-24T05:30:12;12.10;73.30
68922;DHT22;55959;51.244;5.724;2022-11-24T05:32:38;12.10;73.20
68922;DHT22;55959;51.244;5.724;2022-11-24T05:35:04;12.10;73.10
68922;DHT22;55959;51.244;5.724;2022-11-24T05:37:30;12.00;72.90
68922;DHT22;55959;51.244;5.724;2022-11-24T05:39:56;12.00;72.80
68922;DHT22;55959;51.244;5.724;2022-11-24T05:42:22;12.00;72.70
68922;DHT22;55959;51.244;5.724;2022-11-24T05:45:07;12.00;72.50
68922;DHT22;55959;51.244;5.724;2022-11-24T05:47:35;11.90;72.30
68922;DHT22;55959;51.244;5.724;2022-11-24T05:50:01;11.90;72.30
68922;DHT22;55959;51.244;5.724;2022-11-24T05:52:27;11.90;72.30
68922;DHT22;55959;51.244;5.724;2022-11-24T05:54:53;11.90;72.30
68922;DHT22;55959;51.244;5.724;2022-11-24T05:57:19;11.90;72.10
68922;DHT22;55959;51.244;5.724;2022-11-24T05:59:45;11.90;72.10
68922;DHT22;55959;51.244;5.724;2022-11-24T06:02:11;11.80;71.90
68922;DHT22;55959;51.244;5.724;2022-11-24T06:04:37;11.80;71.90
68922;DHT22;55959;51.244;5.724;2022-11-24T06:07:05;11.80;72.00
68922;DHT22;55959;51.244;5.724;2022-11-24T06:09:31;11.80;72.00
68922;DHT22;55959;51.244;5.724;2022-11-24T06:12:00;11.80;72.00
68922;DHT22;55959;51.244;5.724;2022-11-24T06:14:26;11.80;72.10
68922;DHT22;55959;51.244;5.724;2022-11-24T06:16:51;11.80;72.10
68922;DHT22;55959;51.244;5.724;2022-11-24T06:19:17;11.80;72.10
68922;DHT22;55959;51.244;5.724;2022-11-24T06:21:43;11.80;72.20
68922;DHT22;55959;51.244;5.724;2022-11-24T06:24:09;11.70;72.20
68922;DHT22;55959;51.244;5.724;2022-11-24T06:26:34;11.70;72.30
68922;DHT22;55959;51.244;5.724;2022-11-24T06:29:00;11.70;72.20
68922;DHT22;55959;51.244;5.724;2022-11-24T06:31:26;11.80;72.30
68922;DHT22;55959;51.244;5.724;2022-11-24T06:33:52;11.80;72.30
68922;DHT22;55959;51.244;5.724;2022-11-24T06:36:17;11.80;72.30
68922;DHT22;55959;51.244;5.724;2022-11-24T06:38:43;11.80;72.10
68922;DHT22;55959;51.244;5.724;2022-11-24T06:41:12;11.80;72.00
68922;DHT22;55959;51.244;5.724;2022-11-24T06:43:39;11.70;72.00
68922;DHT22;55959;51.244;5.724;2022-11-24T06:46:05;11.70;71.90
68922;DHT22;55959;51.244;5.724;2022-11-24T06:48:32;11.70;71.90
68922;DHT22;55959;51.244;5.724;2022-11-24T06:51:02;11.70;71.90
68922;DHT22;55959;51.244;5.724;2022-11-24T06:53:30;11.70;71.90
68922;DHT22;55959;51.244;5.724;2022-11-24T06:56:00;11.80;72.10
68922;DHT22;55959;51.244;5.724;2022-11-24T06:58:26;11.70;71.90
68922;DHT22;55959;51.244;5.724;2022-11-24T07:00:52;11.70;71.80
68922;DHT22;55959;51.244;5.724;2022-11-24T07:03:18;11.70;71.70
68922;DHT22;55959;51.244;5.724;2022-11-24T07:05:44;11.70;71.60
68922;DHT22;55959;51.244;5.724;2022-11-24T07:08:10;11.70;71.50
68922;DHT22;55959;51.244;5.724;2022-11-24T07:10:36;11.70;71.50
68922;DHT22;55959;51.244;5.724;2022-11-24T07:13:05;11.70;71.50
68922;DHT22;55959;51.244;5.724;2022-11-24T07:15:31;11.60;71.40
68922;DHT22;55959;51.244;5.724;2022-11-24T07:17:58;11.60;71.50
68922;DHT22;55959;51.244;5.724;2022-11-24T07:20:24;11.60;72.50
68922;DHT22;55959;51.244;5.724;2022-11-24T07:22:54;11.60;71.60
68922;DHT22;55959;51.244;5.724;2022-11-24T07:25:26;11.60;71.50
68922;DHT22;55959;51.244;5.724;2022-11-24T07:27:56;11.50;71.60
68922;DHT22;55959;51.244;5.724;2022-11-24T07:30:25;11.50;71.70
68922;DHT22;55959;51.244;5.724;2022-11-24T07:32:51;11.50;71.80
68922;DHT22;55959;51.244;5.724;2022-11-24T07:35:23;11.50;71.90
68922;DHT22;55959;51.244;5.724;2022-11-24T07:37:48;11.50;72.00
68922;DHT22;55959;51.244;5.724;2022-11-24T07:40:14;11.40;72.00
68922;DHT22;55959;51.244;5.724;2022-11-24T07:42:40;11.50;72.10
68922;DHT22;55959;51.244;5.724;2022-11-24T07:45:06;11.40;72.10
68922;DHT22;55959;51.244;5.724;2022-11-24T07:47:32;11.40;72.10
68922;DHT22;55959;51.244;5.724;2022-11-24T07:49:58;11.40;72.10
68922;DHT22;55959;51.244;5.724;2022-11-24T07:52:24;11.40;72.20
68922;DHT22;55959;51.244;5.724;2022-11-24T07:54:51;11.40;72.30
68922;DHT22;55959;51.244;5.724;2022-11-24T07:57:17;11.40;72.30
68922;DHT22;55959;51.244;5.724;2022-11-24T07:59:42;11.30;72.40
68922;DHT22;55959;51.244;5.724;2022-11-24T08:02:10;11.40;72.50
68922;DHT22;55959;51.244;5.724;2022-11-24T08:04:36;11.40;72.50
68922;DHT22;55959;51.244;5.724;2022-11-24T08:07:02;11.40;72.60
68922;DHT22;55959;51.244;5.724;2022-11-24T08:09:28;11.30;72.60
68922;DHT22;55959;51.244;5.724;2022-11-24T08:11:53;11.30;72.80
68922;DHT22;55959;51.244;5.724;2022-11-24T08:14:19;11.30;72.80
68922;DHT22;55959;51.244;5.724;2022-11-24T08:16:45;11.30;72.90
68922;DHT22;55959;51.244;5.724;2022-11-24T08:19:11;11.30;72.90
68922;DHT22;55959;51.244;5.724;2022-11-24T08:21:37;11.30;73.00
68922;DHT22;55959;51.244;5.724;2022-11-24T08:24:03;11.30;73.20
68922;DHT22;55959;51.244;5.724;2022-11-24T08:26:29;11.30;73.30
68922;DHT22;55959;51.244;5.724;2022-11-24T08:28:57;11.30;73.50
68922;DHT22;55959;51.244;5.724;2022-11-24T08:31:24;11.30;73.60
68922;DHT22;55959;51.244;5.724;2022-11-24T08:33:53;11.30;73.70
68922;DHT22;55959;51.244;5.724;2022-11-24T08:36:19;11.30;73.80
68922;DHT22;55959;51.244;5.724;2022-11-24T08:38:45;11.30;74.00
68922;DHT22;55959;51.244;5.724;2022-11-24T08:41:14;11.40;74.00
68922;DHT22;55959;51.244;5.724;2022-11-24T08:43:41;11.40;74.00
68922;DHT22;55959;51.244;5.724;2022-11-24T08:46:09;11.40;73.90
68922;DHT22;55959;51.244;5.724;2022-11-24T08:48:37;11.40;73.90
68922;DHT22;55959;51.244;5.724;2022-11-24T08:51:09;11.40;73.90
68922;DHT22;55959;51.244;5.724;2022-11-24T08:53:36;11.50;73.90
68922;DHT22;55959;51.244;5.724;2022-11-24T08:56:03;11.40;73.90
68922;DHT22;55959;51.244;5.724;2022-11-24T08:58:30;11.50;73.90
68922;DHT22;55959;51.244;5.724;2022-11-24T09:01:03;11.50;73.90
68922;DHT22;55959;51.244;5.724;2022-11-24T09:03:29;11.50;74.00
68922;DHT22;55959;51.244;5.724;2022-11-24T09:05:55;11.50;74.00
68922;DHT22;55959;51.244;5.724;2022-11-24T09:08:21;11.50;74.00
68922;DHT22;55959;51.244;5.724;2022-11-24T09:10:46;11.60;74.00
68922;DHT22;55959;51.244;5.724;2022-11-24T09:13:12;11.50;74.00
68922;DHT22;55959;51.244;5.724;2022-11-24T09:15:38;11.60;74.00
68922;DHT22;55959;51.244;5.724;2022-11-24T09:18:05;11.60;74.10
68922;DHT22;55959;51.244;5.724;2022-11-24T09:20:30;11.60;74.10
68922;DHT22;55959;51.244;5.724;2022-11-24T09:22:56;11.60;74.10
68922;DHT22;55959;51.244;5.724;2022-11-24T09:25:22;11.60;74.10
68922;DHT22;55959;51.244;5.724;2022-11-24T09:27:48;11.60;74.10
68922;DHT22;55959;51.244;5.724;2022-11-24T09:30:15;11.70;74.10
68922;DHT22;55959;51.244;5.724;2022-11-24T09:32:41;11.70;74.10
68922;DHT22;55959;51.244;5.724;2022-11-24T09:35:07;11.70;74.20
68922;DHT22;55959;51.244;5.724;2022-11-24T09:37:33;11.80;74.20
68922;DHT22;55959;51.244;5.724;2022-11-24T09:40:00;11.80;74.00
68922;DHT22;55959;51.244;5.724;2022-11-24T09:45:08;11.80;74.10
68922;DHT22;55959;51.244;5.724;2022-11-24T09:48:07;11.80;74.10
68922;DHT22;55959;51.244;5.724;2022-11-24T09:50:37;11.90;74.10
68922;DHT22;55959;51.244;5.724;2022-11-24T09:55:47;11.90;74.10
68922;DHT22;55959;51.244;5.724;2022-11-24T09:58:31;12.00;74.10
68922;DHT22;55959;51.244;5.724;2022-11-24T10:03:49;12.00;73.90
68922;DHT22;55959;51.244;5.724;2022-11-24T10:06:38;12.10;73.90
68922;DHT22;55959;51.244;5.724;2022-11-24T10:15:01;12.20;73.90
68922;DHT22;55959;51.244;5.724;2022-11-24T10:26:31;12.30;73.80
68922;DHT22;55959;51.244;5.724;2022-11-24T10:29:01;12.40;73.70
68922;DHT22;55959;51.244;5.724;2022-11-24T10:31:42;12.40;73.50
68922;DHT22;55959;51.244;5.724;2022-11-24T10:34:15;12.50;73.50
68922;DHT22;55959;51.244;5.724;2022-11-24T10:42:18;12.60;73.10
68922;DHT22;55959;51.244;5.724;2022-11-24T10:45:02;12.60;72.90
68922;DHT22;55959;51.244;5.724;2022-11-24T10:47:39;12.70;72.90
68922;DHT22;55959;51.244;5.724;2022-11-24T10:50:30;12.70;72.70
68922;DHT22;55959;51.244;5.724;2022-11-24T11:01:23;12.80;72.10
68922;DHT22;55959;51.244;5.724;2022-11-24T11:03:58;12.90;72.20
68922;DHT22;55959;51.244;5.724;2022-11-24T11:06:26;13.00;72.20
68922;DHT22;55959;51.244;5.724;2022-11-24T11:11:31;13.10;72.10
68922;DHT22;55959;51.244;5.724;2022-11-24T11:18:57;13.20;71.40
68922;DHT22;55959;51.244;5.724;2022-11-24T11:21:38;13.20;71.20
68922;DHT22;55959;51.244;5.724;2022-11-24T11:24:12;13.20;71.10
68922;DHT22;55959;51.244;5.724;2022-11-24T11:26:39;13.30;71.20
68922;DHT22;55959;51.244;5.724;2022-11-24T11:31:33;13.40;71.20
68922;DHT22;55959;51.244;5.724;2022-11-24T11:36:38;13.40;70.70
68922;DHT22;55959;51.244;5.724;2022-11-24T11:39:08;13.50;70.60
68922;DHT22;55959;51.244;5.724;2022-11-24T11:41:47;13.60;70.80
68922;DHT22;55959;51.244;5.724;2022-11-24T11:44:26;13.60;70.60
68922;DHT22;55959;51.244;5.724;2022-11-24T11:46:57;13.60;70.40
68922;DHT22;55959;51.244;5.724;2022-11-24T11:49:23;13.60;70.20
68922;DHT22;55959;51.244;5.724;2022-11-24T11:52:10;13.70;70.00
68922;DHT22;55959;51.244;5.724;2022-11-24T12:04:20;13.90;70.00
68922;DHT22;55959;51.244;5.724;2022-11-24T12:12:59;13.90;69.60
68922;DHT22;55959;51.244;5.724;2022-11-24T12:15:41;14.00;69.60
68922;DHT22;55959;51.244;5.724;2022-11-24T12:18:37;14.00;69.50
68922;DHT22;55959;51.244;5.724;2022-11-24T12:21:15;14.10;69.50
68922;DHT22;55959;51.244;5.724;2022-11-24T12:35:41;14.20;68.80
68922;DHT22;55959;51.244;5.724;2022-11-24T12:41:20;14.30;68.60
68922;DHT22;55959;51.244;5.724;2022-11-24T12:43:53;14.30;68.50
68922;DHT22;55959;51.244;5.724;2022-11-24T12:46:27;14.30;68.10
68922;DHT22;55959;51.244;5.724;2022-11-24T12:52:03;14.40;68.00
68922;DHT22;55959;51.244;5.724;2022-11-24T12:54:38;14.50;68.10
68922;DHT22;55959;51.244;5.724;2022-11-24T12:57:32;14.50;68.00
68922;DHT22;55959;51.244;5.724;2022-11-24T13:00:16;14.60;68.00
68922;DHT22;55959;51.244;5.724;2022-11-24T13:08:29;14.60;67.30
68922;DHT22;55959;51.244;5.724;2022-11-24T13:14:04;14.70;67.10
68922;DHT22;55959;51.244;5.724;2022-11-24T13:16:32;14.70;66.90
68922;DHT22;55959;51.244;5.724;2022-11-24T13:18:59;14.70;66.90
68922;DHT22;55959;51.244;5.724;2022-11-24T13:24:21;14.80;66.90
68922;DHT22;55959;51.244;5.724;2022-11-24T13:27:37;14.80;66.60
68922;DHT22;55959;51.244;5.724;2022-11-24T13:29:38;14.80;66.50
68922;DHT22;55959;51.244;5.724;2022-11-24T13:42:24;15.00;66.10
68922;DHT22;55959;51.244;5.724;2022-11-24T13:51:07;15.10;66.10
68922;DHT22;55959;51.244;5.724;2022-11-24T13:58:43;15.10;65.60
68922;DHT22;55959;51.244;5.724;2022-11-24T14:01:22;15.10;66.20
68922;DHT22;55959;51.244;5.724;2022-11-24T14:04:15;15.10;64.90
68922;DHT22;55959;51.244;5.724;2022-11-24T14:06:53;15.20;64.70
68922;DHT22;55959;51.244;5.724;2022-11-24T14:12:16;15.20;65.00
68922;DHT22;55959;51.244;5.724;2022-11-24T14:14:49;15.10;64.90
68922;DHT22;55959;51.244;5.724;2022-11-24T14:17:19;15.10;64.90
68922;DHT22;55959;51.244;5.724;2022-11-24T14:19:52;15.20;64.80
68922;DHT22;55959;51.244;5.724;2022-11-24T14:25:00;15.20;65.40
68922;DHT22;55959;51.244;5.724;2022-11-24T14:27:36;15.20;64.60
68922;DHT22;55959;51.244;5.724;2022-11-24T14:32:29;15.20;64.50
68922;DHT22;55959;51.244;5.724;2022-11-24T14:34:55;15.20;64.60
68922;DHT22;55959;51.244;5.724;2022-11-24T14:37:21;15.20;65.40
68922;DHT22;55959;51.244;5.724;2022-11-24T14:39:47;15.20;64.60
68922;DHT22;55959;51.244;5.724;2022-11-24T14:42:24;15.20;64.60
68922;DHT22;55959;51.244;5.724;2022-11-24T14:44:56;15.20;64.40
68922;DHT22;55959;51.244;5.724;2022-11-24T14:47:31;15.10;64.20
68922;DHT22;55959;51.244;5.724;2022-11-24T14:50:26;15.10;64.20
68922;DHT22;55959;51.244;5.724;2022-11-24T14:52:56;15.10;64.20
68922;DHT22;55959;51.244;5.724;2022-11-24T14:55:29;15.10;64.30
68922;DHT22;55959;51.244;5.724;2022-11-24T14:57:57;15.00;64.20
68922;DHT22;55959;51.244;5.724;2022-11-24T15:03:11;15.00;64.20
68922;DHT22;55959;51.244;5.724;2022-11-24T15:05:58;14.90;64.30
68922;DHT22;55959;51.244;5.724;2022-11-24T15:08:35;14.90;64.30
68922;DHT22;55959;51.244;5.724;2022-11-24T15:11:04;14.80;65.20
68922;DHT22;55959;51.244;5.724;2022-11-24T15:13:39;14.80;64.40
68922;DHT22;55959;51.244;5.724;2022-11-24T15:16:14;14.70;64.20
68922;DHT22;55959;51.244;5.724;2022-11-24T15:18:43;14.70;64.30
68922;DHT22;55959;51.244;5.724;2022-11-24T15:21:11;14.60;64.30
68922;DHT22;55959;51.244;5.724;2022-11-24T15:23:39;14.60;64.50
68922;DHT22;55959;51.244;5.724;2022-11-24T15:28:35;14.50;64.60
68922;DHT22;55959;51.244;5.724;2022-11-24T15:31:04;14.50;64.80
68922;DHT22;55959;51.244;5.724;2022-11-24T15:33:31;14.50;65.20
68922;DHT22;55959;51.244;5.724;2022-11-24T15:35:58;14.50;64.80
68922;DHT22;55959;51.244;5.724;2022-11-24T15:38:24;14.40;64.80
68922;DHT22;55959;51.244;5.724;2022-11-24T15:40:51;14.40;64.80
68922;DHT22;55959;51.244;5.724;2022-11-24T15:43:32;14.30;64.80
68922;DHT22;55959;51.244;5.724;2022-11-24T15:46:00;14.30;64.80
68922;DHT22;55959;51.244;5.724;2022-11-24T15:48:27;14.20;64.80
68922;DHT22;55959;51.244;5.724;2022-11-24T15:50:53;14.10;64.90
68922;DHT22;55959;51.244;5.724;2022-11-24T15:53:23;14.10;65.00
68922;DHT22;55959;51.244;5.724;2022-11-24T15:55:51;14.10;65.10
68922;DHT22;55959;51.244;5.724;2022-11-24T15:58:17;14.10;65.20
68922;DHT22;55959;51.244;5.724;2022-11-24T16:00:43;14.00;65.20
68922;DHT22;55959;51.244;5.724;2022-11-24T16:03:10;14.00;65.20
68922;DHT22;55959;51.244;5.724;2022-11-24T16:05:37;14.00;65.30
68922;DHT22;55959;51.244;5.724;2022-11-24T16:08:11;13.90;65.30
68922;DHT22;55959;51.244;5.724;2022-11-24T16:10:37;13.90;65.30
68922;DHT22;55959;51.244;5.724;2022-11-24T16:13:03;13.90;65.40
68922;DHT22;55959;51.244;5.724;2022-11-24T16:15:29;13.80;65.40
68922;DHT22;55959;51.244;5.724;2022-11-24T16:17:55;13.80;65.40
68922;DHT22;55959;51.244;5.724;2022-11-24T16:20:20;13.70;65.40
68922;DHT22;55959;51.244;5.724;2022-11-24T16:22:46;13.70;65.50
68922;DHT22;55959;51.244;5.724;2022-11-24T16:25:13;13.60;65.50
68922;DHT22;55959;51.244;5.724;2022-11-24T16:27:38;13.60;65.60
68922;DHT22;55959;51.244;5.724;2022-11-24T16:30:05;13.60;65.70
68922;DHT22;55959;51.244;5.724;2022-11-24T16:32:32;13.50;65.80
68922;DHT22;55959;51.244;5.724;2022-11-24T16:34:57;13.40;65.80
68922;DHT22;55959;51.244;5.724;2022-11-24T16:37:23;13.40;66.00
68922;DHT22;55959;51.244;5.724;2022-11-24T16:39:49;13.30;65.90
68922;DHT22;55959;51.244;5.724;2022-11-24T16:42:15;13.30;66.00
68922;DHT22;55959;51.244;5.724;2022-11-24T16:44:41;13.30;66.00
68922;DHT22;55959;51.244;5.724;2022-11-24T16:47:07;13.20;66.00
68922;DHT22;55959;51.244;5.724;2022-11-24T16:49:33;13.20;66.10
68922;DHT22;55959;51.244;5.724;2022-11-24T16:51:58;13.20;66.00
68922;DHT22;55959;51.244;5.724;2022-11-24T16:54:24;13.10;66.00
68922;DHT22;55959;51.244;5.724;2022-11-24T16:56:51;13.10;66.10
68922;DHT22;55959;51.244;5.724;2022-11-24T16:59:16;13.10;66.10
68922;DHT22;55959;51.244;5.724;2022-11-24T17:01:42;13.00;66.00
68922;DHT22;55959;51.244;5.724;2022-11-24T17:04:11;13.00;66.10
68922;DHT22;55959;51.244;5.724;2022-11-24T17:06:37;12.90;66.10
68922;DHT22;55959;51.244;5.724;2022-11-24T17:09:03;12.90;66.20
68922;DHT22;55959;51.244;5.724;2022-11-24T17:11:29;12.90;66.30
68922;DHT22;55959;51.244;5.724;2022-11-24T17:13:56;12.80;66.20
68922;DHT22;55959;51.244;5.724;2022-11-24T17:16:23;12.80;66.20
68922;DHT22;55959;51.244;5.724;2022-11-24T17:18:50;12.80;66.40
68922;DHT22;55959;51.244;5.724;2022-11-24T17:21:21;12.70;66.50
68922;DHT22;55959;51.244;5.724;2022-11-24T17:23:56;12.70;66.50
68922;DHT22;55959;51.244;5.724;2022-11-24T17:26:27;12.70;66.50
68922;DHT22;55959;51.244;5.724;2022-11-24T17:28:53;12.60;66.40
68922;DHT22;55959;51.244;5.724;2022-11-24T17:33:55;12.60;66.50
68922;DHT22;55959;51.244;5.724;2022-11-24T17:36:21;12.60;66.60
68922;DHT22;55959;51.244;5.724;2022-11-24T17:38:47;12.50;66.70
68922;DHT22;55959;51.244;5.724;2022-11-24T17:41:20;12.60;66.70
68922;DHT22;55959;51.244;5.724;2022-11-24T17:43:53;12.50;66.60
68922;DHT22;55959;51.244;5.724;2022-11-24T17:46:20;12.50;66.60
68922;DHT22;55959;51.244;5.724;2022-11-24T17:48:46;12.50;66.70
68922;DHT22;55959;51.244;5.724;2022-11-24T17:51:13;12.50;66.70
68922;DHT22;55959;51.244;5.724;2022-11-24T17:53:42;12.50;66.70
68922;DHT22;55959;51.244;5.724;2022-11-24T17:56:13;12.50;67.70
68922;DHT22;55959;51.244;5.724;2022-11-24T17:58:40;12.50;66.90
68922;DHT22;55959;51.244;5.724;2022-11-24T18:01:07;12.50;66.90